Terminal Aerodrome Forecast
Issued by NWS

Home | Current Version | Previous Version | Text Only | Print | Product List | Glossary On
Versions: 1 2 3 4 5 6 7 8 9 10 11 12 13 14 15 16
000
FTUS42 KMLB 031738
TAFISM
TAF
KISM 031738Z 0318/0418 VRB05KT P6SM SCT040
     FM032000 12008KT P6SM VCTS SCT045CB SCT150
     FM040000 14005KT P6SM FEW050 SCT080 BKN250
     FM040600 18003KT P6SM SCT250
     FM041400 19005KT P6SM SCT025
      AMD NOT SKED 0403/0412=

USA.gov is the U.S. government's official web portal to all federal, state and local government web resources and services.